Time;durP1;ratioP1;P1;durP2;ratioP2;P2;SDS_P1;SDS_P2;PMS_P1;PMS_P2;Temp;Humidity;BMP_temperature;BMP_pressure;BME280_temperature;BME280_humidity;BME280_pressure;Samples;Min_cycle;Max_cycle;Signal;HPM_P1;HPM_P2
2022/08/10 00:01:10;;;;;;;10.85;5.88;;;;;;;23.96;60.77;100438.69;2096926;28;20048;-76
2022/08/10 00:02:32;;;;;;;9.73;5.20;;;;;;;23.86;61.04;100428.41;2093817;28;20066;-76
2022/08/10 00:03:54;;;;;;;9.23;4.82;;;;;;;23.76;61.35;100431.50;2099656;28;20052;-75
2022/08/10 00:05:16;;;;;;;10.10;5.45;;;;;;;23.75;61.51;100427.09;2110598;28;20092;-75
2022/08/10 00:06:39;;;;;;;10.68;5.55;;;;;;;23.79;61.41;100423.28;2106183;28;20606;-75
2022/08/10 00:08:00;;;;;;;12.30;5.40;;;;;;;23.84;61.35;100426.66;2103123;28;20074;-75
2022/08/10 00:09:24;;;;;;;9.93;5.35;;;;;;;23.87;61.32;100419.38;2102504;28;20052;-75
2022/08/10 00:10:46;;;;;;;9.43;5.82;;;;;;;23.76;61.25;100414.47;2101923;28;20187;-77
2022/08/10 00:12:09;;;;;;;11.25;5.03;;;;;;;23.63;61.75;100416.81;2109387;28;20044;-75
2022/08/10 00:13:31;;;;;;;9.90;5.60;;;;;;;23.52;62.07;100424.50;2104919;28;20540;-76
2022/08/10 00:14:53;;;;;;;10.00;6.07;;;;;;;23.45;62.21;100423.84;2102941;28;20052;-75
2022/08/10 00:16:15;;;;;;;11.38;5.18;;;;;;;23.48;62.18;100422.00;2102625;28;20036;-75
2022/08/10 00:17:37;;;;;;;9.40;5.43;;;;;;;23.52;62.10;100413.72;2101717;28;20096;-76
2022/08/10 00:18:59;;;;;;;10.15;5.47;;;;;;;23.59;62.18;100419.72;2101267;28;20056;-76
2022/08/10 00:20:20;;;;;;;9.07;5.70;;;;;;;23.62;61.92;100425.88;2105981;28;20112;-75
2022/08/10 00:21:42;;;;;;;12.80;5.93;;;;;;;23.65;61.73;100420.31;2102163;28;20505;-75
2022/08/10 00:23:05;;;;;;;11.55;5.70;;;;;;;23.69;61.55;100410.28;2111611;28;20048;-75
2022/08/10 00:24:29;;;;;;;11.63;5.60;;;;;;;23.71;61.34;100414.66;2104628;28;20046;-76
2022/08/10 00:25:50;;;;;;;13.85;6.43;;;;;;;23.72;61.50;100411.03;2103421;28;20097;-76
2022/08/10 00:27:12;;;;;;;10.65;5.28;;;;;;;23.70;61.40;100412.91;2103138;28;20044;-76
2022/08/10 00:28:35;;;;;;;10.20;5.63;;;;;;;23.60;61.64;100405.31;2103051;28;20097;-75
2022/08/10 00:29:57;;;;;;;12.95;5.45;;;;;;;23.57;61.95;100408.09;2099744;28;20047;-76
2022/08/10 00:31:20;;;;;;;10.05;5.60;;;;;;;23.59;61.68;100417.91;2094634;28;20097;-75
2022/08/10 00:32:41;;;;;;;9.80;5.50;;;;;;;23.60;61.91;100405.31;2100744;28;20067;-76
2022/08/10 00:34:04;;;;;;;10.70;5.35;;;;;;;23.52;62.10;100411.00;2096705;28;20052;-76
2022/08/10 00:35:26;;;;;;;10.98;5.47;;;;;;;23.47;62.15;100404.97;2100464;28;20097;-75
2022/08/10 00:36:48;;;;;;;8.18;4.95;;;;;;;23.51;62.17;100411.06;2102060;28;20036;-75
2022/08/10 00:38:10;;;;;;;10.30;5.53;;;;;;;23.52;62.16;100408.31;2097154;28;20048;-75
2022/08/10 00:39:33;;;;;;;11.68;6.03;;;;;;;23.57;61.98;100408.09;2100650;28;20110;-75
2022/08/10 00:40:56;;;;;;;9.77;5.30;;;;;;;23.62;61.80;100411.50;2103408;28;20381;-75
2022/08/10 00:42:18;;;;;;;11.88;6.18;;;;;;;23.65;61.72;100408.66;2102690;28;20048;-75
2022/08/10 00:43:41;;;;;;;12.30;5.28;;;;;;;23.68;61.45;100414.81;2103029;28;20072;-76
2022/08/10 00:45:05;;;;;;;10.07;4.65;;;;;;;23.67;61.47;100406.78;2107759;28;20039;-75
2022/08/10 00:46:27;;;;;;;11.85;5.50;;;;;;;23.62;61.51;100411.50;2096720;28;20046;-75
2022/08/10 00:47:50;;;;;;;11.27;5.35;;;;;;;23.61;61.73;100402.53;2094751;28;20044;-75
2022/08/10 00:49:11;;;;;;;10.80;4.97;;;;;;;23.63;61.54;100410.56;2103094;28;20036;-76
2022/08/10 00:50:34;;;;;;;11.15;5.63;;;;;;;23.61;61.57;100399.84;2110846;27;20407;-76
2022/08/10 00:51:57;;;;;;;9.30;4.65;;;;;;;23.63;61.58;100397.94;2096174;28;20040;-75
2022/08/10 00:53:19;;;;;;;10.95;5.40;;;;;;;23.63;61.20;100406.03;2100316;28;20093;-75
2022/08/10 00:54:43;;;;;;;12.73;4.78;;;;;;;23.59;61.45;100398.16;2101326;28;20122;-76
2022/08/10 00:56:06;;;;;;;9.15;4.78;;;;;;;23.46;61.75;100387.00;2104053;28;20088;-76
2022/08/10 00:57:27;;;;;;;10.15;5.50;;;;;;;23.45;61.86;100386.13;2101841;28;20032;-76
2022/08/10 00:58:50;;;;;;;9.50;4.80;;;;;;;23.48;61.93;100395.94;2102989;28;20170;-76
2022/08/10 01:00:13;;;;;;;8.27;4.70;;;;;;;23.46;61.87;100397.78;2103050;28;20487;-75
2022/08/10 01:01:35;;;;;;;7.63;4.32;;;;;;;23.34;61.97;100392.91;2102430;28;20504;-76
2022/08/10 01:02:58;;;;;;;11.27;4.72;;;;;;;23.33;62.29;100393.84;2111296;28;20086;-75
2022/08/10 01:04:19;;;;;;;8.63;4.47;;;;;;;23.40;62.06;100398.03;2105644;28;20143;-75
2022/08/10 01:05:51;;;;;;;11.00;5.05;;;;;;;23.47;61.86;100391.47;2108025;28;20553;-76
2022/08/10 01:07:31;;;;;;;9.25;4.95;;;;;;;23.49;61.70;100386.03;2094198;28;20060;-75
2022/08/10 01:09:02;;;;;;;9.38;5.03;;;;;;;23.52;61.71;100399.34;2112289;28;20063;-75
2022/08/10 01:10:50;;;;;;;12.45;5.30;;;;;;;23.54;61.15;100392.97;2088853;28;20073;-76
2022/08/10 01:12:15;;;;;;;9.65;4.50;;;;;;;23.50;61.26;100395.88;2108745;28;20135;-76
2022/08/10 01:13:43;;;;;;;10.48;5.00;;;;;;;23.51;61.36;100384.13;2096439;28;20068;-75
2022/08/10 01:15:11;;;;;;;10.32;5.05;;;;;;;23.53;61.20;100390.34;2093256;28;20055;-75
2022/08/10 01:16:37;;;;;;;10.23;5.15;;;;;;;23.53;60.90;100385.81;2098709;28;20044;-75
2022/08/10 01:18:03;;;;;;;11.13;4.90;;;;;;;23.49;60.91;100388.72;2092098;28;20095;-76
2022/08/10 01:19:46;;;;;;;8.25;4.30;;;;;;;23.44;61.25;100386.19;2102543;28;20040;-75
2022/08/10 01:21:57;;;;;;;9.35;4.85;;;;;;;23.44;61.38;100378.09;2089075;28;20044;-75
2022/08/10 01:23:47;;;;;;;13.32;5.15;;;;;;;23.48;61.35;100379.78;2102667;28;20854;-76
2022/08/10 01:25:36;;;;;;;8.98;4.95;;;;;;;23.55;61.01;100375.88;2096993;28;20048;-75
2022/08/10 01:27:20;;;;;;;7.18;4.38;;;;;;;23.57;60.73;100386.53;2105695;28;20569;-75
2022/08/10 01:28:57;;;;;;;7.75;4.47;;;;;;;23.54;60.74;100378.63;2088938;28;20064;-76
2022/08/10 01:30:25;;;;;;;12.07;4.38;;;;;;;23.53;60.85;100377.75;2095764;28;20052;-75
2022/08/10 01:31:52;;;;;;;9.40;5.00;;;;;;;23.55;60.92;100381.25;2086237;28;20557;-76
2022/08/10 01:33:22;;;;;;;6.20;4.22;;;;;;;23.59;60.82;100382.84;2106057;28;20047;-75
2022/08/10 01:34:49;;;;;;;10.32;4.53;;;;;;;23.58;60.83;100383.78;2103977;28;20042;-75
2022/08/10 01:36:14;;;;;;;7.70;4.38;;;;;;;23.54;60.81;100382.19;2105422;28;20054;-75
2022/08/10 01:37:42;;;;;;;8.68;4.75;;;;;;;23.50;60.67;100380.56;2105367;28;20146;-75
2022/08/10 01:39:07;;;;;;;8.02;4.70;;;;;;;23.49;60.74;100377.94;2096815;28;20084;-75
2022/08/10 01:40:34;;;;;;;8.90;4.88;;;;;;;23.47;60.91;100382.47;2102792;28;20169;-75
2022/08/10 01:41:59;;;;;;;9.85;5.10;;;;;;;23.47;60.89;100385.19;2103164;28;20112;-75
2022/08/10 01:43:23;;;;;;;9.50;4.82;;;;;;;23.48;60.84;100378.88;2092259;28;20040;-76
2022/08/10 01:44:51;;;;;;;9.25;4.78;;;;;;;23.47;60.76;100378.00;2103740;28;20040;-75
2022/08/10 01:46:17;;;;;;;8.45;4.47;;;;;;;23.45;60.75;100380.72;2103992;28;20561;-75
2022/08/10 01:49:23;;;;;;;7.28;4.45;;;;;;;23.37;60.92;100382.00;2097098;28;20037;-75
2022/08/10 01:50:48;;;;;;;9.45;4.30;;;;;;;23.36;60.78;100380.28;2109027;28;20121;-76
2022/08/10 01:52:12;;;;;;;8.35;4.95;;;;;;;23.34;60.72;100380.31;2108272;28;20035;-75
2022/08/10 01:53:41;;;;;;;8.55;4.60;;;;;;;23.36;60.80;100380.28;2101006;28;20043;-75
2022/08/10 01:55:04;;;;;;;6.03;3.88;;;;;;;23.34;60.93;100388.41;2108995;28;20139;-75
2022/08/10 01:56:30;;;;;;;8.63;4.13;;;;;;;23.27;60.96;100377.97;2105256;28;20131;-75
2022/08/10 01:57:54;;;;;;;9.38;4.20;;;;;;;23.24;61.11;100384.34;2094722;28;20043;-75
2022/08/10 01:59:20;;;;;;;8.95;4.53;;;;;;;23.19;61.32;100377.41;2105486;28;20095;-75
2022/08/10 02:00:44;;;;;;;11.27;4.40;;;;;;;23.15;61.16;100379.34;2111481;28;20036;-76
2022/08/10 02:02:11;;;;;;;6.05;3.78;;;;;;;23.19;61.34;100378.28;2092597;28;20129;-75
2022/08/10 02:03:36;;;;;;;7.97;3.70;;;;;;;23.21;61.07;100379.09;2098815;28;20555;-75
2022/08/10 02:05:01;;;;;;;8.00;3.83;;;;;;;23.19;60.97;100382.78;2102900;28;20432;-75
2022/08/10 02:06:25;;;;;;;9.10;3.90;;;;;;;23.20;61.09;100374.66;2102728;28;20052;-75
2022/08/10 02:07:48;;;;;;;11.13;4.70;;;;;;;23.25;60.83;100382.53;2101545;28;20040;-75
2022/08/10 02:09:14;;;;;;;8.65;4.20;;;;;;;23.28;60.56;100382.41;2102503;28;20113;-76
2022/08/10 02:10:37;;;;;;;7.28;4.32;;;;;;;23.25;60.50;100379.81;2094797;28;20070;-75
2022/08/10 02:12:04;;;;;;;5.88;3.60;;;;;;;23.25;60.45;100377.13;2098416;28;20058;-75
2022/08/10 02:13:27;;;;;;;7.20;3.72;;;;;;;23.27;60.55;100375.25;2099682;28;20052;-76
2022/08/10 02:14:53;;;;;;;11.35;4.35;;;;;;;23.29;60.22;100371.56;2102491;28;20458;-76
2022/08/10 02:16:19;;;;;;;9.32;4.05;;;;;;;23.32;60.30;100375.94;2094590;28;20053;-76
2022/08/10 02:17:52;;;;;;;7.75;4.40;;;;;;;23.34;60.42;100377.63;2098917;28;20805;-75
2022/08/10 02:19:19;;;;;;;5.72;4.03;;;;;;;23.37;60.17;100371.22;2101781;28;20051;-76
2022/08/10 02:20:44;;;;;;;7.97;3.80;;;;;;;23.35;60.12;100370.44;2102746;28;20143;-75
2022/08/10 02:22:09;;;;;;;8.70;4.50;;;;;;;23.32;60.31;100375.94;2102588;28;20055;-75
2022/08/10 02:23:35;;;;;;;6.20;3.75;;;;;;;23.26;60.20;100366.31;2110433;28;20082;-76
2022/08/10 02:24:59;;;;;;;5.90;3.50;;;;;;;23.25;60.25;100364.53;2101570;28;20051;-75
2022/08/10 02:26:22;;;;;;;8.15;3.95;;;;;;;23.25;60.26;100372.63;2100141;28;20056;-75
2022/08/10 02:27:46;;;;;;;6.68;3.58;;;;;;;23.22;60.46;100372.78;2102227;28;20141;-75
2022/08/10 02:29:09;;;;;;;8.98;4.25;;;;;;;23.22;60.31;100372.78;2102606;28;20076;-76
2022/08/10 02:30:33;;;;;;;6.68;3.38;;;;;;;23.25;60.42;100371.75;2102394;28;20460;-76
2022/08/10 02:31:55;;;;;;;6.18;3.30;;;;;;;23.28;59.98;100367.13;2102321;28;20093;-75
2022/08/10 02:33:20;;;;;;;;;;;;;;;23.30;59.83;100367.91;2111265;28;20139;-75
2022/08/10 02:34:43;;;;;;;7.63;3.30;;;;;;;23.35;59.81;100373.13;2102886;28;19920;-76
2022/08/10 02:36:10;;;;;;;7.30;3.80;;;;;;;23.37;59.65;100361.31;2091188;28;20499;-75
2022/08/10 02:37:36;;;;;;;9.77;4.20;;;;;;;23.39;59.42;100372.91;2102343;28;20119;-75
2022/08/10 02:39:01;;;;;;;7.82;3.58;;;;;;;23.41;59.47;100371.03;2102640;28;20059;-75
2022/08/10 02:40:24;;;;;;;10.27;3.45;;;;;;;23.41;59.21;100375.56;2102742;28;20455;-75
2022/08/10 02:41:52;;;;;;;12.18;3.97;;;;;;;23.40;59.17;100369.28;2102280;28;20044;-76
2022/08/10 02:43:21;;;;;;;7.38;3.88;;;;;;;23.41;59.08;100375.56;2102881;28;20036;-75
2022/08/10 02:44:51;;;;;;;7.07;3.80;;;;;;;23.36;59.03;100361.41;2101502;28;20044;-76
2022/08/10 02:46:16;;;;;;;6.03;3.50;;;;;;;23.34;59.11;100372.25;2099520;28;20044;-76
2022/08/10 02:47:42;;;;;;;10.02;3.60;;;;;;;23.38;59.00;100368.47;2094333;28;20150;-75
2022/08/10 02:49:13;;;;;;;10.15;3.30;;;;;;;23.43;58.69;100373.69;2100383;28;20551;-75
2022/08/10 02:50:35;;;;;;;5.97;3.95;;;;;;;23.45;58.64;100371.75;2105017;28;20500;-76
2022/08/10 02:52:02;;;;;;;6.10;3.58;;;;;;;23.40;58.70;100371.09;2110776;28;20047;-76
2022/08/10 02:53:31;;;;;;;7.32;3.58;;;;;;;23.37;58.87;100372.09;2104614;28;20048;-76
2022/08/10 02:55:01;;;;;;;7.28;3.22;;;;;;;23.37;58.76;100372.09;2109756;28;20040;-76
2022/08/10 02:56:32;;;;;;;6.55;3.10;;;;;;;23.38;58.71;100367.59;2100293;28;20060;-76
2022/08/10 02:57:57;;;;;;;6.38;3.22;;;;;;;23.35;58.47;100362.34;2092821;28;20139;-76
2022/08/10 02:59:24;;;;;;;11.77;6.03;;;;;;;23.36;58.75;100364.97;2103537;28;20067;-76
2022/08/10 03:00:52;;;;;;;8.52;3.67;;;;;;;23.39;58.57;100366.66;2110316;28;20044;-76
2022/08/10 03:02:21;;;;;;;9.88;3.45;;;;;;;23.38;58.38;100367.59;2102889;28;20051;-76
2022/08/10 03:03:47;;;;;;;9.10;3.80;;;;;;;23.34;58.54;100366.84;2101070;28;20060;-75
2022/08/10 03:05:13;;;;;;;5.88;3.58;;;;;;;23.31;58.41;100360.72;2102594;28;20148;-76
2022/08/10 03:06:40;;;;;;;6.65;3.47;;;;;;;23.29;58.44;100366.19;2102921;28;20076;-75
2022/08/10 03:08:06;;;;;;;8.32;3.08;;;;;;;23.31;58.53;100371.47;2109656;28;20392;-75
2022/08/10 03:09:31;;;;;;;6.43;3.10;;;;;;;23.32;58.37;100370.53;2104851;28;20110;-75
2022/08/10 03:10:56;;;;;;;6.72;3.20;;;;;;;23.35;58.20;100359.66;2088146;28;20048;-75
2022/08/10 03:12:20;;;;;;;7.03;3.00;;;;;;;23.39;58.22;100369.34;2099970;28;20039;-75
2022/08/10 03:13:43;;;;;;;7.80;3.30;;;;;;;23.34;58.08;100374.06;2104800;28;20052;-75
2022/08/10 03:15:07;;;;;;;6.35;3.15;;;;;;;23.18;58.43;100367.56;2098455;28;20458;-76
2022/08/10 03:16:33;;;;;;;6.88;2.65;;;;;;;23.09;58.52;100365.28;2091724;28;20562;-75
2022/08/10 03:17:57;;;;;;;7.82;3.17;;;;;;;23.12;58.43;100366.00;2106024;28;20483;-75
2022/08/10 03:19:20;;;;;;;7.97;3.45;;;;;;;23.19;58.27;100372.88;2113487;28;20055;-75
2022/08/10 03:20:45;;;;;;;7.75;3.50;;;;;;;23.22;58.13;100374.59;2108783;28;20050;-76
2022/08/10 03:22:07;;;;;;;7.30;3.67;;;;;;;23.22;58.27;100371.91;2102277;28;20060;-76
2022/08/10 03:23:30;;;;;;;8.32;3.50;;;;;;;23.19;58.10;100374.69;2094504;28;20044;-75
2022/08/10 03:24:53;;;;;;;7.38;3.63;;;;;;;23.19;58.19;100374.69;2089823;28;20048;-76
2022/08/10 03:26:16;;;;;;;7.28;3.38;;;;;;;23.20;58.01;100371.94;2099619;28;20496;-76
2022/08/10 03:27:40;;;;;;;18.90;4.53;;;;;;;23.19;58.13;100370.19;2110765;28;20101;-75
2022/08/10 03:29:03;;;;;;;8.88;3.17;;;;;;;23.20;57.94;100368.38;2104565;28;20438;-75
2022/08/10 03:30:26;;;;;;;5.38;2.65;;;;;;;23.20;57.85;100373.78;2102177;28;20052;-76
2022/08/10 03:31:50;;;;;;;7.35;3.03;;;;;;;23.22;57.94;100374.59;2102068;28;20098;-76
2022/08/10 03:33:14;;;;;;;3.90;2.75;;;;;;;23.23;57.85;100379.03;2097053;28;20426;-75
2022/08/10 03:34:37;;;;;;;6.53;3.28;;;;;;;23.14;57.85;100380.28;2116745;28;20754;-75
2022/08/10 03:36:00;;;;;;;5.38;3.00;;;;;;;23.11;58.11;100374.16;2102511;28;20457;-76
2022/08/10 03:37:22;;;;;;;9.57;3.05;;;;;;;23.15;58.10;100378.47;2101444;28;20051;-75
2022/08/10 03:38:50;;;;;;;6.07;2.88;;;;;;;23.22;57.82;100382.66;2102625;28;20129;-75
2022/08/10 03:40:11;;;;;;;6.95;3.13;;;;;;;23.23;57.73;100377.22;2096050;28;20142;-75
2022/08/10 03:41:36;;;;;;;5.68;3.13;;;;;;;23.26;57.82;100382.47;2103736;28;20039;-75
2022/08/10 03:43:00;;;;;;;4.88;2.88;;;;;;;23.29;57.82;100385.03;2098248;28;20036;-75
2022/08/10 03:44:27;;;;;;;8.45;3.80;;;;;;;23.34;57.67;100384.84;2095895;28;20143;-75
2022/08/10 03:45:52;;;;;;;6.28;3.47;;;;;;;23.37;57.85;100380.19;2100225;28;20040;-76
2022/08/10 03:47:16;;;;;;;11.27;4.25;;;;;;;23.41;57.78;100386.31;2105845;28;20073;-75
2022/08/10 03:48:38;;;;;;;7.53;3.00;;;;;;;23.44;57.57;100383.47;2105924;28;20078;-76
2022/08/10 03:50:03;;;;;;;5.85;3.20;;;;;;;23.51;57.81;100386.81;2112216;28;20141;-75
2022/08/10 03:51:27;;;;;;;7.20;4.20;;;;;;;23.51;57.66;100385.00;2114816;28;20070;-76
2022/08/10 03:52:48;;;;;;;9.98;2.75;;;;;;;23.48;57.82;100390.53;2119374;27;20047;-76
2022/08/10 03:54:11;;;;;;;7.32;2.95;;;;;;;23.47;57.59;100385.19;2106253;28;20358;-75
2022/08/10 03:55:33;;;;;;;7.18;3.13;;;;;;;23.43;57.63;100387.16;2104730;28;20040;-76
2022/08/10 03:56:56;;;;;;;8.88;3.22;;;;;;;23.43;57.77;100387.16;2100807;28;20044;-75
2022/08/10 03:58:18;;;;;;;6.25;2.80;;;;;;;23.48;57.74;100390.53;2103638;28;20511;-76
2022/08/10 03:59:40;;;;;;;7.55;2.97;;;;;;;23.62;57.74;100389.94;2098106;28;20055;-75
2022/08/10 04:01:02;;;;;;;6.93;2.67;;;;;;;23.75;57.08;100400.13;2104701;28;20047;-76
2022/08/10 04:02:25;;;;;;;8.10;2.58;;;;;;;23.84;57.19;100394.28;2102532;28;20051;-76
2022/08/10 04:03:47;;;;;;;7.85;2.65;;;;;;;23.97;56.76;100393.75;2109771;28;20047;-75
2022/08/10 04:05:10;;;;;;;10.55;2.97;;;;;;;24.09;56.60;100394.06;2109527;28;20139;-76
2022/08/10 04:06:33;;;;;;;8.48;2.50;;;;;;;24.25;56.37;100391.56;2097498;28;20048;-76
2022/08/10 04:07:56;;;;;;;6.78;3.03;;;;;;;24.36;56.19;100383.84;2095261;28;20052;-76
2022/08/10 04:09:18;;;;;;;3.22;2.38;;;;;;;24.44;55.70;100389.75;2095429;28;20094;-76
2022/08/10 04:10:40;;;;;;;6.63;3.13;;;;;;;24.55;55.82;100397.31;2089523;28;20067;-76
2022/08/10 04:12:03;;;;;;;5.45;2.50;;;;;;;24.63;55.50;100385.22;2100832;28;20282;-76
2022/08/10 04:13:24;;;;;;;5.63;2.58;;;;;;;24.75;55.55;100389.13;2100577;28;20048;-76
2022/08/10 04:14:47;;;;;;;4.95;2.67;;;;;;;24.86;55.53;100380.53;2103459;28;20052;-76
2022/08/10 04:16:08;;;;;;;10.90;2.58;;;;;;;24.97;55.41;100383.59;2101359;28;20048;-76
2022/08/10 04:17:31;;;;;;;5.05;2.30;;;;;;;25.06;55.05;100390.38;2101975;28;20048;-76
2022/08/10 04:18:52;;;;;;;5.63;2.63;;;;;;;25.15;54.99;100390.78;2103436;28;20086;-76
2022/08/10 04:20:20;;;;;;;5.28;2.80;;;;;;;25.26;55.10;100387.53;2097581;28;20045;-76
2022/08/10 04:21:50;;;;;;;5.63;2.65;;;;;;;25.38;54.58;100384.22;2095938;28;20071;-76
2022/08/10 04:23:20;;;;;;;5.03;2.65;;;;;;;25.41;54.77;100386.75;2104457;28;20051;-75
2022/08/10 04:24:45;;;;;;;4.18;1.98;;;;;;;25.47;54.23;100386.41;2111165;28;20075;-75
2022/08/10 04:26:08;;;;;;;6.18;2.30;;;;;;;25.59;53.98;100393.06;2106063;28;20570;-76
2022/08/10 04:27:30;;;;;;;7.63;2.00;;;;;;;25.67;53.63;100391.69;2105573;28;20135;-75
2022/08/10 04:28:53;;;;;;;6.88;2.15;;;;;;;25.66;53.22;100395.38;2103550;28;20477;-76
2022/08/10 04:30:16;;;;;;;6.90;2.75;;;;;;;25.74;53.64;100393.13;2103197;28;20078;-76
2022/08/10 04:31:41;;;;;;;11.73;2.15;;;;;;;25.90;53.11;100395.91;2110513;28;20043;-76
2022/08/10 04:33:05;;;;;;;6.28;2.00;;;;;;;26.06;52.81;100394.09;2105682;28;20123;-75
2022/08/10 04:34:31;;;;;;;7.90;2.88;;;;;;;26.28;52.47;100390.25;2100899;28;20553;-76
2022/08/10 04:35:54;;;;;;;6.82;1.83;;;;;;;26.46;52.41;100390.13;2101098;28;20482;-76
2022/08/10 04:37:19;;;;;;;8.20;2.38;;;;;;;26.68;52.41;100391.63;2102431;28;20047;-76
2022/08/10 04:38:44;;;;;;;5.47;2.20;;;;;;;26.88;52.05;100388.63;2094946;28;20036;-76
2022/08/10 04:40:06;;;;;;;4.03;2.40;;;;;;;27.06;51.90;100393.03;2100448;28;20120;-76
2022/08/10 04:41:29;;;;;;;4.15;2.17;;;;;;;27.24;51.74;100391.94;2102611;28;20110;-76
2022/08/10 04:42:51;;;;;;;5.07;2.08;;;;;;;27.43;51.53;100385.44;2103084;28;20409;-75
2022/08/10 04:44:13;;;;;;;;;;;;;;;27.58;51.06;100400.78;2101339;28;20158;-76
2022/08/10 04:45:36;;;;;;;6.70;1.85;;;;;;;27.75;50.85;100384.38;2095270;28;19920;-76
2022/08/10 04:46:59;;;;;;;7.35;1.73;;;;;;;27.87;49.98;100391.75;2108738;28;20075;-77
2022/08/10 04:48:23;;;;;;;7.47;1.90;;;;;;;28.06;49.30;100395.06;2102121;28;20055;-76
2022/08/10 04:49:44;;;;;;;9.68;2.15;;;;;;;28.22;48.63;100391.44;2105021;28;20043;-76
2022/08/10 04:51:07;;;;;;;4.82;1.98;;;;;;;28.35;48.23;100386.97;2102717;28;20050;-76
2022/08/10 04:52:31;;;;;;;7.32;1.40;;;;;;;28.53;47.90;100391.22;2102560;28;20059;-76
2022/08/10 04:53:53;;;;;;;5.18;1.67;;;;;;;28.71;47.01;100391.84;2104358;28;20158;-76
2022/08/10 04:55:16;;;;;;;4.90;1.48;;;;;;;28.85;46.15;100386.41;2097527;28;20036;-76
2022/08/10 04:56:39;;;;;;;3.60;2.00;;;;;;;28.96;46.01;100392.00;2102598;28;20055;-75
2022/08/10 04:58:01;;;;;;;3.25;1.58;;;;;;;29.05;46.08;100394.13;2097066;28;20040;-76
2022/08/10 04:59:23;;;;;;;6.25;1.60;;;;;;;29.22;45.80;100392.97;2108616;28;20048;-76
2022/08/10 05:00:44;;;;;;;6.15;2.22;;;;;;;29.36;45.27;100390.22;2105172;28;20058;-75
2022/08/10 05:02:07;;;;;;;6.13;1.70;;;;;;;29.47;45.28;100394.94;2105225;28;20116;-76
2022/08/10 05:03:28;;;;;;;4.78;1.58;;;;;;;29.62;44.59;100402.03;2100081;28;20043;-75
2022/08/10 05:04:51;;;;;;;4.32;1.60;;;;;;;29.81;44.28;100394.31;2106880;28;20137;-76
2022/08/10 05:06:13;;;;;;;4.15;1.92;;;;;;;29.97;43.83;100399.63;2101317;28;20060;-76
2022/08/10 05:07:37;;;;;;;4.93;1.60;;;;;;;30.13;43.38;100394.81;2105271;28;20097;-75
2022/08/10 05:08:58;;;;;;;7.75;2.00;;;;;;;30.35;43.43;100399.59;2102266;28;20044;-76
2022/08/10 05:10:21;;;;;;;5.20;2.05;;;;;;;30.58;42.71;100403.41;2102581;28;20052;-76
2022/08/10 05:11:42;;;;;;;6.43;1.88;;;;;;;30.76;42.26;100397.47;2102630;28;20507;-76
2022/08/10 05:13:05;;;;;;;4.05;1.65;;;;;;;30.91;42.42;100403.66;2102363;28;20106;-75
2022/08/10 05:14:28;;;;;;;5.05;1.63;;;;;;;31.12;41.79;100406.63;2100349;28;20044;-76
2022/08/10 05:15:50;;;;;;;8.52;1.60;;;;;;;31.32;41.17;100399.66;2100777;28;20206;-76
2022/08/10 05:17:12;;;;;;;5.22;1.60;;;;;;;31.50;40.43;100410.06;2102532;28;20044;-76
2022/08/10 05:18:34;;;;;;;;;;;;;;;31.63;40.43;100410.88;2099023;28;20448;-76
2022/08/10 05:19:55;;;;;;;5.38;2.75;;;;;;;31.87;40.57;100415.41;2105039;28;19920;-76
2022/08/10 05:21:18;;;;;;;5.72;1.60;;;;;;;32.00;39.71;100410.72;2105720;28;20047;-76
2022/08/10 05:22:43;;;;;;;3.85;1.40;;;;;;;32.20;39.42;100417.34;2096581;28;20081;-74
2022/08/10 05:24:05;;;;;;;4.10;1.40;;;;;;;32.41;39.08;100410.16;2106790;28;20052;-74
2022/08/10 05:25:28;;;;;;;6.82;1.92;;;;;;;32.64;38.62;100411.88;2106444;28;20051;-76
2022/08/10 05:26:49;;;;;;;3.55;1.42;;;;;;;32.89;37.89;100407.16;2105164;28;20044;-76
2022/08/10 05:28:12;;;;;;;3.17;1.40;;;;;;;33.11;37.29;100413.44;2104647;28;20086;-77
2022/08/10 05:29:33;;;;;;;2.38;1.70;;;;;;;33.34;36.44;100411.56;2102725;28;20048;-76
2022/08/10 05:30:55;;;;;;;3.85;1.55;;;;;;;33.45;35.81;100407.91;2094044;28;20048;-77
2022/08/10 05:32:32;;;;;;;5.80;1.42;;;;;;;33.52;35.50;100407.25;2119794;27;20129;-75
2022/08/10 05:33:54;;;;;;;5.30;1.52;;;;;;;33.60;35.55;100407.47;2113520;28;20043;-75
2022/08/10 05:35:16;;;;;;;4.60;2.00;;;;;;;33.82;35.13;100411.97;2107243;28;20576;-75
2022/08/10 05:36:40;;;;;;;3.58;1.65;;;;;;;34.07;34.57;100399.72;2106835;28;20079;-74
2022/08/10 05:38:02;;;;;;;4.57;1.27;;;;;;;34.36;34.24;100399.91;2109478;28;20104;-75
2022/08/10 05:39:25;;;;;;;4.47;1.40;;;;;;;34.61;33.68;100407.66;2101041;28;20087;-75
2022/08/10 05:40:48;;;;;;;5.03;1.60;;;;;;;34.84;33.35;100402.88;2100707;28;20140;-75
2022/08/10 05:42:10;;;;;;;2.85;1.13;;;;;;;35.03;33.15;100400.16;2117965;28;20105;-75
2022/08/10 05:43:33;;;;;;;6.20;1.60;;;;;;;35.12;32.82;100399.28;2098972;28;20079;-75
2022/08/10 05:44:56;;;;;;;8.05;2.08;;;;;;;35.28;32.80;100400.66;2120849;27;20091;-76
2022/08/10 05:46:18;;;;;;;5.45;2.13;;;;;;;35.40;32.33;100400.38;2113784;28;20475;-76
2022/08/10 05:47:41;;;;;;;7.28;1.70;;;;;;;35.55;32.27;100396.19;2126410;27;20053;-75
2022/08/10 05:49:04;;;;;;;5.15;1.60;;;;;;;35.67;31.81;100398.78;2112440;28;20044;-76
2022/08/10 05:50:27;;;;;;;6.18;1.52;;;;;;;35.79;31.84;100393.00;2108328;28;20441;-76
2022/08/10 05:51:49;;;;;;;3.35;1.73;;;;;;;35.91;31.23;100391.81;2102525;28;20202;-76
2022/08/10 05:53:12;;;;;;;4.95;1.70;;;;;;;36.01;31.38;100400.06;2094897;28;20101;-75
2022/08/10 05:54:34;;;;;;;6.35;1.58;;;;;;;36.10;31.04;100393.69;2104202;28;20127;-75
2022/08/10 05:55:56;;;;;;;6.65;2.58;;;;;;;36.27;31.09;100397.56;2100936;28;20056;-76
2022/08/10 05:57:22;;;;;;;5.03;1.48;;;;;;;36.41;31.04;100401.69;2109063;28;20138;-76
2022/08/10 05:58:44;;;;;;;3.60;1.48;;;;;;;36.49;30.68;100399.94;2110464;28;20056;-76
2022/08/10 06:00:10;;;;;;;6.90;1.63;;;;;;;36.50;30.49;100401.63;2108517;28;20055;-76
2022/08/10 06:01:40;;;;;;;5.22;1.75;;;;;;;36.48;30.39;100386.31;2100760;28;20049;-76
2022/08/10 06:03:07;;;;;;;5.88;1.63;;;;;;;36.48;30.50;100389.06;2109743;28;20117;-77
2022/08/10 06:04:36;;;;;;;3.58;1.48;;;;;;;36.49;30.53;100396.31;2110888;28;20048;-76
2022/08/10 06:06:01;;;;;;;5.15;1.45;;;;;;;36.59;30.44;100397.13;2126991;27;20078;-76
2022/08/10 06:07:27;;;;;;;4.90;1.40;;;;;;;36.61;30.01;100397.84;2104746;28;20075;-76
2022/08/10 06:08:50;;;;;;;4.88;1.48;;;;;;;36.52;30.18;100390.50;2097564;28;20040;-76
2022/08/10 06:10:14;;;;;;;4.50;1.60;;;;;;;36.51;30.26;100391.50;2106009;28;20043;-77
2022/08/10 06:11:37;;;;;;;6.10;1.60;;;;;;;36.61;30.41;100401.47;2097073;28;20135;-76
2022/08/10 06:15:03;;;;;;;5.13;1.30;;;;;;;36.84;29.85;100398.31;2103243;28;20102;-76
2022/08/10 06:16:25;;;;;;;3.90;1.40;;;;;;;36.92;29.64;100401.19;2103296;28;20083;-76
2022/08/10 06:17:48;;;;;;;6.25;1.40;;;;;;;36.98;29.42;100395.06;2103552;28;20039;-77
2022/08/10 06:19:13;;;;;;;5.65;2.15;;;;;;;36.95;29.45;100403.63;2106393;28;20089;-76
2022/08/10 06:20:35;;;;;;;3.85;1.50;;;;;;;36.92;29.45;100402.03;2109002;28;20461;-76
2022/08/10 06:22:00;;;;;;;7.53;1.33;;;;;;;36.90;29.44;100395.81;2109366;28;20467;-76
2022/08/10 06:23:25;;;;;;;5.72;1.45;;;;;;;36.92;29.45;100404.81;2115649;27;20039;-76
2022/08/10 06:24:48;;;;;;;5.53;1.38;;;;;;;37.01;29.47;100406.63;2108315;28;20040;-75
2022/08/10 06:26:11;;;;;;;10.10;1.55;;;;;;;37.08;29.39;100407.75;2110443;27;20039;-76
2022/08/10 06:27:34;;;;;;;5.63;1.52;;;;;;;37.20;29.30;100400.16;2125825;27;20429;-76
2022/08/10 06:29:02;;;;;;;4.45;1.45;;;;;;;37.27;29.34;100406.78;2115806;28;20131;-76
2022/08/10 06:30:27;;;;;;;7.82;1.60;;;;;;;37.24;29.44;100409.81;2109640;28;20071;-76
2022/08/10 06:31:52;;;;;;;4.90;1.52;;;;;;;37.23;29.42;100405.34;2105154;28;20135;-76
2022/08/10 06:33:15;;;;;;;9.68;1.80;;;;;;;37.17;29.47;100418.88;2107129;28;20047;-76
2022/08/10 06:34:43;;;;;;;4.60;1.08;;;;;;;37.09;29.59;100412.22;2102746;28;20534;-74
2022/08/10 06:36:07;;;;;;;6.38;1.55;;;;;;;37.10;30.10;100415.84;2119613;27;20044;-74
2022/08/10 06:37:30;;;;;;;7.03;1.60;;;;;;;37.15;30.27;100412.66;2101474;28;20649;-75